< < Back
Terminal Aerodrome Forecast


Current Version              Previous Versions:   1  2  3  4  5  6  7  8  9  

Terminal Aerodrome Forecast

517
FTUS42 KGSP 281737
TAFGSP
TAF
KGSP 281737Z 2818/2918 22013G22KT P6SM VCSH BKN045
     FM282300 24011KT P6SM FEW250
     FM290900 VRB03KT P6SM SKC
     FM291700 27005KT P6SM SKC=

Latest METAR

989
SAUS70 KWBC 291700 RRA
MTRGSP
METAR KGSP 291653Z VRB05KT 10SM CLR 28/07 A2999 RMK AO2 SLP145
T02830067


USA.gov is the U.S. government's official web portal to all federal, state and local government web resources and services.